Time;durP1;ratioP1;P1;durP2;ratioP2;P2;SDS_P1;SDS_P2;PMS_P1;PMS_P2;Temp;Humidity;BMP_temperature;BMP_pressure;BME280_temperature;BME280_humidity;BME280_pressure;Samples;Min_cycle;Max_cycle;Signal;HPM_P1;HPM_P2
2023/07/05 00:00:31;;;;;;;15.00;6.97;;;;;;;19.89;51.52;99861.50;5089395;28;20024;-62
2023/07/05 00:02:57;;;;;;;11.77;7.07;;;;;;;19.85;51.94;99862.88;5087979;28;20195;-63
2023/07/05 00:05:23;;;;;;;12.32;7.40;;;;;;;19.82;51.55;99863.25;5088275;28;20050;-62
2023/07/05 00:07:49;;;;;;;15.85;7.18;;;;;;;19.65;51.46;99843.53;5074750;28;20078;-62
2023/07/05 00:10:15;;;;;;;16.70;7.40;;;;;;;19.78;51.26;99864.66;5074981;28;20070;-63
2023/07/05 00:12:41;;;;;;;14.52;7.95;;;;;;;19.75;51.59;99874.00;5075198;28;20119;-64
2023/07/05 00:15:07;;;;;;;12.13;7.70;;;;;;;19.73;51.65;99875.22;5074793;28;20242;-63
2023/07/05 00:17:34;;;;;;;14.23;7.80;;;;;;;19.51;52.22;99846.03;5074591;28;20051;-61
2023/07/05 00:20:00;;;;;;;10.85;7.70;;;;;;;19.65;52.13;99867.97;5074851;28;20071;-63
2023/07/05 00:22:29;;;;;;;13.75;8.75;;;;;;;19.70;51.79;99875.56;5074813;28;20104;-63
2023/07/05 00:24:55;;;;;;;13.27;7.80;;;;;;;19.62;51.79;99866.47;5074670;28;20051;-63
2023/07/05 00:27:24;;;;;;;15.48;8.45;;;;;;;19.69;52.73;99880.19;5075426;28;20375;-63
2023/07/05 00:29:52;;;;;;;14.82;9.45;;;;;;;19.63;52.11;99881.75;5074743;28;20071;-62
2023/07/05 00:32:19;;;;;;;20.13;9.55;;;;;;;19.63;52.07;99881.75;5074621;28;20120;-63
2023/07/05 00:34:45;;;;;;;19.58;9.15;;;;;;;19.59;52.98;99885.84;5075372;28;20109;-62
2023/07/05 00:37:11;;;;;;;18.30;10.02;;;;;;;19.54;52.71;99885.56;5074329;28;20444;-63
2023/07/05 00:39:36;;;;;;;15.35;9.85;;;;;;;19.55;52.23;99883.69;5074536;28;20051;-62
2023/07/05 00:42:03;;;;;;;18.67;10.00;;;;;;;19.49;53.02;99885.25;5075835;28;20364;-63
2023/07/05 00:44:28;;;;;;;19.00;9.35;;;;;;;19.46;53.34;99889.19;5074539;28;20412;-63
2023/07/05 00:47:19;;;;;;;19.20;9.57;;;;;;;19.51;53.01;99888.63;5067345;28;20060;-62
2023/07/05 00:49:44;;;;;;;15.07;9.50;;;;;;;19.18;53.65;99837.28;5054256;28;20041;-62
2023/07/05 00:52:13;;;;;;;16.17;9.35;;;;;;;19.41;53.46;99897.03;5082201;28;20030;-62
2023/07/05 00:54:44;;;;;;;18.40;9.93;;;;;;;19.39;53.38;99877.31;5092593;28;20032;-63
2023/07/05 00:57:24;;;;;;;16.45;11.15;;;;;;;19.48;52.94;99878.13;5074408;28;20094;-63
2023/07/05 01:00:06;;;;;;;17.17;10.60;;;;;;;19.51;53.28;99885.91;5054095;28;20044;-62
2023/07/05 01:02:32;;;;;;;16.85;10.77;;;;;;;19.29;53.24;99850.44;5054312;28;20029;-63
2023/07/05 01:05:00;;;;;;;18.33;10.55;;;;;;;19.46;53.08;99886.47;5053634;28;20107;-62
2023/07/05 01:07:26;;;;;;;16.48;10.63;;;;;;;19.39;53.41;99873.78;5054246;28;20047;-62
2023/07/05 01:09:52;;;;;;;19.73;10.70;;;;;;;19.36;54.15;99891.25;5054070;28;20032;-62
2023/07/05 01:12:31;;;;;;;21.08;10.90;;;;;;;19.40;53.69;99892.59;5054129;28;20047;-63
2023/07/05 01:15:10;;;;;;;17.23;11.13;;;;;;;19.42;53.60;99889.72;5087743;28;20135;-63
2023/07/05 01:17:42;;;;;;;23.50;10.88;;;;;;;19.41;53.52;99877.16;5093671;28;20107;-62
2023/07/05 01:20:26;;;;;;;18.83;11.20;;;;;;;19.38;53.85;99886.50;5092824;28;20363;-61
2023/07/05 01:22:55;;;;;;;19.08;10.65;;;;;;;19.38;54.11;99883.78;5053567;28;20033;-62
2023/07/05 01:25:39;;;;;;;18.52;11.00;;;;;;;19.49;54.34;99880.66;5053801;28;20444;-62
2023/07/05 01:28:29;;;;;;;17.75;10.57;;;;;;;19.46;54.70;99886.47;5054012;28;20029;-62
2023/07/05 01:31:13;;;;;;;16.70;11.07;;;;;;;19.46;54.34;99881.03;5053147;28;20032;-62
2023/07/05 01:34:06;;;;;;;20.65;11.23;;;;;;;19.60;53.92;99887.53;5053539;28;20376;-62
2023/07/05 01:36:33;;;;;;;24.88;11.45;;;;;;;19.54;53.88;99882.00;5061564;28;20427;-63
2023/07/05 01:38:59;;;;;;;21.25;10.80;;;;;;;19.56;54.61;99891.66;5073289;28;20076;-63
2023/07/05 01:41:25;;;;;;;16.90;10.48;;;;;;;19.60;54.40;99892.13;5073453;28;20353;-63
2023/07/05 01:43:52;;;;;;;19.65;11.10;;;;;;;19.60;54.57;99883.97;5079750;28;20451;-64
2023/07/05 01:46:27;;;;;;;19.83;11.20;;;;;;;19.76;54.50;99886.56;5093851;28;20072;-62
2023/07/05 01:49:18;;;;;;;18.70;10.98;;;;;;;19.85;54.13;99894.63;5093433;28;20035;-62
2023/07/05 01:51:56;;;;;;;18.67;11.15;;;;;;;19.91;53.45;99893.94;5088063;28;20033;-63
2023/07/05 01:54:53;;;;;;;16.60;11.23;;;;;;;19.99;53.84;99901.16;5073055;28;20056;-62
2023/07/05 01:57:26;;;;;;;18.05;10.75;;;;;;;19.99;53.45;99887.56;5071580;28;20033;-62
2023/07/05 01:59:57;;;;;;;17.58;10.65;;;;;;;20.01;53.96;99890.94;5090239;28;20458;-62
2023/07/05 02:02:30;;;;;;;17.05;11.65;;;;;;;20.12;53.51;99893.22;5093133;28;20042;-63
2023/07/05 02:04:59;;;;;;;18.50;11.48;;;;;;;19.96;53.49;99858.06;5093152;28;20040;-62
2023/07/05 02:07:30;;;;;;;20.60;11.40;;;;;;;20.29;53.22;99896.63;5093011;28;20123;-63
2023/07/05 02:09:55;;;;;;;16.77;11.07;;;;;;;20.30;53.82;99886.63;5092902;28;20024;-63
2023/07/05 02:12:22;;;;;;;20.48;10.68;;;;;;;20.30;52.57;99873.03;5092581;28;20413;-64
2023/07/05 02:14:48;;;;;;;18.10;11.48;;;;;;;20.60;53.26;99890.16;5092978;28;20044;-63
2023/07/05 02:17:14;;;;;;;17.98;10.70;;;;;;;20.79;52.09;99888.78;5090561;28;20053;-61
2023/07/05 02:19:40;;;;;;;16.25;10.85;;;;;;;21.02;51.31;99885.09;5072732;28;20036;-63
2023/07/05 02:22:06;;;;;;;20.52;11.50;;;;;;;21.23;50.25;99873.38;5084215;28;20031;-62
2023/07/05 02:24:31;;;;;;;16.35;9.57;;;;;;;21.58;48.74;99880.84;5092761;28;20036;-61
2023/07/05 02:26:59;;;;;;;11.52;8.65;;;;;;;21.88;48.08;99886.19;5092541;28;20032;-62
2023/07/05 02:29:25;;;;;;;16.50;8.88;;;;;;;22.21;46.74;99871.97;5092393;28;20118;-62
2023/07/05 02:31:51;;;;;;;12.40;8.85;;;;;;;22.60;46.09;99891.53;5092490;28;20059;-62
2023/07/05 02:34:17;;;;;;;13.63;8.65;;;;;;;22.92;45.07;99891.06;5092427;28;20125;-61
2023/07/05 02:36:42;;;;;;;14.63;8.02;;;;;;;23.22;44.56;99885.28;5090549;28;20032;-62
2023/07/05 02:39:08;;;;;;;12.43;8.25;;;;;;;23.50;43.93;99876.13;5093073;28;20454;-62
2023/07/05 02:41:33;;;;;;;12.85;8.10;;;;;;;23.79;43.27;99871.31;5092786;28;20028;-62
2023/07/05 02:43:59;;;;;;;14.32;8.38;;;;;;;24.08;42.15;99875.53;5090846;28;20028;-62
2023/07/05 02:46:26;;;;;;;13.60;8.30;;;;;;;24.27;41.89;99883.06;5092721;28;20028;-62
2023/07/05 02:48:58;;;;;;;13.93;8.10;;;;;;;24.51;41.68;99885.13;5092433;28;20031;-62
2023/07/05 02:51:26;;;;;;;16.27;8.27;;;;;;;24.55;40.68;99873.75;5092424;28;20358;-63
2023/07/05 02:53:52;;;;;;;11.77;7.60;;;;;;;24.65;40.53;99876.88;5092307;28;20036;-63
2023/07/05 02:56:18;;;;;;;11.35;7.38;;;;;;;24.58;40.65;99881.53;5086877;28;20345;-63
2023/07/05 02:58:43;;;;;;;16.83;7.95;;;;;;;24.58;40.94;99878.78;5070920;28;20039;-62
2023/07/05 03:01:09;;;;;;;11.15;7.80;;;;;;;24.52;40.95;99889.53;5089234;28;20541;-62
2023/07/05 03:03:34;;;;;;;15.02;7.40;;;;;;;24.48;41.58;99884.75;5092579;28;20046;-63
2023/07/05 03:06:01;;;;;;;14.38;7.63;;;;;;;24.51;41.05;99887.88;5092410;28;20044;-62
2023/07/05 03:08:30;;;;;;;10.07;7.15;;;;;;;24.57;40.79;99888.06;5090396;28;20039;-62
2023/07/05 03:10:58;;;;;;;15.13;8.20;;;;;;;24.49;40.66;99859.88;5092600;28;20040;-63
2023/07/05 03:13:29;;;;;;;11.20;7.82;;;;;;;24.83;40.44;99892.66;5091873;28;20092;-62
2023/07/05 03:15:55;;;;;;;13.25;7.97;;;;;;;24.90;40.09;99887.97;5091712;28;20028;-63
2023/07/05 03:18:20;;;;;;;11.18;7.85;;;;;;;25.06;39.91;99892.09;5091783;28;20085;-63
2023/07/05 03:20:47;;;;;;;11.43;7.28;;;;;;;25.18;39.32;99888.69;5092553;28;20355;-64
2023/07/05 03:23:14;;;;;;;12.30;8.25;;;;;;;25.25;38.88;99888.66;5090576;28;20024;-64
2023/07/05 03:25:40;;;;;;;12.07;7.47;;;;;;;25.33;38.74;99889.25;5092450;28;20394;-63
2023/07/05 03:28:06;;;;;;;15.77;7.57;;;;;;;25.43;37.82;99896.16;5074300;28;20028;-63
2023/07/05 03:30:33;;;;;;;10.48;7.10;;;;;;;25.48;38.19;99888.13;5090687;28;20483;-63
2023/07/05 03:32:59;;;;;;;10.38;7.22;;;;;;;25.58;38.00;99893.13;5092339;28;20024;-62
2023/07/05 03:35:24;;;;;;;11.10;7.07;;;;;;;25.69;37.73;99905.28;5091654;28;20352;-63
2023/07/05 03:37:49;;;;;;;11.18;7.25;;;;;;;25.77;37.93;99896.78;5091996;28;20392;-62
2023/07/05 03:40:15;;;;;;;15.77;7.38;;;;;;;25.85;37.64;99902.00;5091995;28;20036;-63
2023/07/05 03:42:40;;;;;;;10.95;6.90;;;;;;;25.90;37.58;99902.16;5095615;28;20028;-61
2023/07/05 03:45:07;;;;;;;13.52;7.15;;;;;;;25.98;37.30;99892.81;5094938;28;20035;-63
2023/07/05 03:47:32;;;;;;;14.75;7.68;;;;;;;26.02;37.17;99891.31;5078970;28;20033;-63
2023/07/05 03:49:58;;;;;;;14.18;6.78;;;;;;;26.09;36.97;99894.00;5075538;28;20055;-62
2023/07/05 03:52:23;;;;;;;10.20;7.43;;;;;;;26.11;37.63;99885.53;5075623;28;20075;-63
2023/07/05 03:54:49;;;;;;;9.20;6.97;;;;;;;26.08;36.95;99882.16;5076400;28;20047;-64
2023/07/05 03:57:14;;;;;;;9.85;6.82;;;;;;;26.13;36.53;99878.75;5073470;28;20094;-63
2023/07/05 03:59:40;;;;;;;11.30;6.63;;;;;;;26.14;37.80;99891.41;5075443;28;20059;-63
2023/07/05 04:02:06;;;;;;;14.13;7.28;;;;;;;26.14;36.36;99885.06;5074538;28;20035;-64
2023/07/05 04:04:32;;;;;;;11.73;6.50;;;;;;;26.11;36.49;99880.88;5074706;28;20110;-63
2023/07/05 04:06:59;;;;;;;11.45;6.70;;;;;;;26.09;36.32;99877.53;5073974;28;20069;-64
2023/07/05 04:09:25;;;;;;;15.60;6.53;;;;;;;26.13;37.21;99884.25;5075735;28;20035;-62
2023/07/05 04:11:50;;;;;;;13.27;7.22;;;;;;;26.19;37.04;99882.53;5074398;28;20059;-63
2023/07/05 04:14:16;;;;;;;11.38;6.25;;;;;;;26.31;36.16;99877.16;5074879;28;20024;-63
2023/07/05 04:16:42;;;;;;;11.30;6.75;;;;;;;26.58;35.71;99885.91;5078655;28;20107;-64
2023/07/05 04:19:08;;;;;;;9.85;6.40;;;;;;;26.82;35.13;99886.06;5095012;28;20487;-64
2023/07/05 04:21:33;;;;;;;9.88;6.55;;;;;;;27.20;34.01;99873.97;5094913;28;20348;-65
2023/07/05 04:23:59;;;;;;;9.52;6.28;;;;;;;27.79;33.36;99872.50;5084638;28;20485;-65
2023/07/05 04:26:27;;;;;;;9.48;6.43;;;;;;;28.53;32.57;99886.88;5073621;28;20071;-64
2023/07/05 04:28:53;;;;;;;10.38;6.22;;;;;;;29.10;31.34;99890.81;5074580;28;20029;-64
2023/07/05 04:31:23;;;;;;;10.40;6.43;;;;;;;29.49;30.54;99888.28;5084528;28;20359;-63
2023/07/05 04:33:49;;;;;;;9.57;5.80;;;;;;;29.78;30.69;99882.69;5094846;28;20032;-64
2023/07/05 04:36:14;;;;;;;10.23;6.30;;;;;;;30.57;28.68;99896.59;5094539;28;20435;-67
2023/07/05 04:38:40;;;;;;;11.15;6.43;;;;;;;31.71;26.86;99897.94;5085902;28;20059;-63
2023/07/05 04:41:05;;;;;;;8.88;6.13;;;;;;;32.64;25.38;99890.31;5074130;28;20032;-65
2023/07/05 04:43:31;;;;;;;10.48;6.82;;;;;;;33.09;24.58;99890.78;5072432;28;20047;-62
2023/07/05 04:45:58;;;;;;;8.32;5.97;;;;;;;33.68;24.26;99899.78;5072240;28;20031;-67
2023/07/05 04:48:25;;;;;;;9.52;6.25;;;;;;;34.30;23.16;99885.03;5073719;28;20459;-65
2023/07/05 04:50:54;;;;;;;10.20;5.63;;;;;;;34.51;22.96;99893.34;5074661;28;20024;-65
2023/07/05 04:53:21;;;;;;;14.50;6.50;;;;;;;34.26;23.19;99892.28;5074915;28;20040;-66
2023/07/05 04:55:56;;;;;;;12.23;5.95;;;;;;;34.01;23.38;99897.56;5074137;28;20055;-65
2023/07/05 04:58:22;;;;;;;7.73;5.70;;;;;;;33.32;23.96;99897.78;5074666;28;20051;-65
2023/07/05 05:00:51;;;;;;;11.68;5.88;;;;;;;32.67;24.69;99891.69;5076185;28;20272;-65
2023/07/05 05:03:20;;;;;;;11.15;6.10;;;;;;;32.08;25.95;99897.97;5094251;28;20032;-66
2023/07/05 05:05:53;;;;;;;11.10;6.55;;;;;;;31.67;26.22;99899.56;5094712;28;20055;-67
2023/07/05 05:08:19;;;;;;;10.50;6.03;;;;;;;31.22;26.42;99896.91;5094555;28;20344;-64
2023/07/05 05:10:50;;;;;;;12.38;6.43;;;;;;;30.84;27.48;99895.88;5093858;28;20148;-63
2023/07/05 05:13:15;;;;;;;10.23;6.47;;;;;;;30.35;27.45;99883.59;5094623;28;20028;-64
2023/07/05 05:15:41;;;;;;;9.90;6.47;;;;;;;30.10;28.13;99889.59;5092945;28;20032;-64
2023/07/05 05:18:08;;;;;;;9.65;5.97;;;;;;;29.89;28.12;99903.03;5093985;28;20123;-64
2023/07/05 05:20:37;;;;;;;11.85;6.38;;;;;;;29.57;28.43;99856.69;5094045;28;20028;-64
2023/07/05 05:23:02;;;;;;;8.80;6.30;;;;;;;29.69;28.09;99893.31;5093349;28;20092;-65
2023/07/05 05:25:28;;;;;;;11.82;6.28;;;;;;;29.49;28.77;99858.75;5092992;28;20036;-64
2023/07/05 05:27:53;;;;;;;11.98;5.85;;;;;;;29.52;28.67;99865.72;5094404;28;20038;-65
2023/07/05 05:30:19;;;;;;;10.55;6.57;;;;;;;29.68;28.41;99879.78;5093755;28;20744;-65
2023/07/05 05:32:46;;;;;;;9.00;6.13;;;;;;;29.97;27.86;99876.94;5094076;28;20024;-65
2023/07/05 05:35:12;;;;;;;9.25;6.03;;;;;;;30.80;26.79;99884.50;5092810;28;20040;-66
2023/07/05 05:37:38;;;;;;;13.90;6.25;;;;;;;32.08;24.44;99875.00;5094348;28;20131;-64
2023/07/05 05:40:06;;;;;;;11.27;6.50;;;;;;;33.36;22.98;99881.38;5092489;28;20099;-65
2023/07/05 05:42:32;;;;;;;10.82;5.85;;;;;;;34.53;21.39;99882.78;5093718;28;20089;-66
2023/07/05 05:44:57;;;;;;;9.63;6.97;;;;;;;35.64;20.48;99881.63;5093712;28;20039;-66
2023/07/05 05:47:23;;;;;;;9.80;5.75;;;;;;;36.94;19.12;99879.47;5093006;28;20028;-64
2023/07/05 05:49:48;;;;;;;11.25;6.20;;;;;;;37.64;18.02;99861.16;5091508;28;20052;-69
2023/07/05 05:52:14;;;;;;;10.73;6.63;;;;;;;38.56;17.80;99885.78;5093046;28;20032;-65
2023/07/05 05:54:39;;;;;;;9.85;5.70;;;;;;;39.40;16.73;99870.84;5093567;28;20564;-66
2023/07/05 05:57:05;;;;;;;10.48;5.70;;;;;;;40.51;15.14;99880.56;5093800;28;20032;-64
2023/07/05 05:59:30;;;;;;;7.75;5.60;;;;;;;41.02;14.56;99880.19;5092852;28;20032;-65
2023/07/05 06:01:56;;;;;;;8.80;6.13;;;;;;;40.39;15.13;99886.78;5093020;28;20020;-65
2023/07/05 06:04:21;;;;;;;8.55;5.80;;;;;;;39.68;15.90;99895.91;5089364;28;20039;-65
2023/07/05 06:06:47;;;;;;;8.30;6.07;;;;;;;38.84;16.22;99885.75;5072738;28;20087;-65
2023/07/05 06:09:14;;;;;;;11.13;5.82;;;;;;;38.12;17.40;99903.94;5072907;28;20032;-65
2023/07/05 06:11:40;;;;;;;10.80;6.10;;;;;;;38.13;17.26;99898.06;5072617;28;20142;-66
2023/07/05 06:14:06;;;;;;;11.27;5.93;;;;;;;38.64;17.03;99906.59;5072468;28;20447;-67
2023/07/05 06:16:32;;;;;;;8.88;5.75;;;;;;;39.05;16.47;99896.53;5073480;28;20478;-64
2023/07/05 06:18:57;;;;;;;9.23;5.72;;;;;;;39.33;15.80;99888.03;5072427;28;20029;-65
2023/07/05 06:21:23;;;;;;;9.13;5.90;;;;;;;40.15;15.64;99893.59;5072533;28;20031;-65
2023/07/05 06:23:50;;;;;;;8.30;5.72;;;;;;;40.82;14.28;99887.28;5072764;28;20039;-65
2023/07/05 06:26:15;;;;;;;11.70;6.22;;;;;;;42.36;12.75;99902.22;5072502;28;20033;-65
2023/07/05 06:28:41;;;;;;;14.50;6.28;;;;;;;44.13;11.83;99888.47;5072663;28;20348;-65
2023/07/05 06:31:08;;;;;;;9.98;6.10;;;;;;;45.50;10.59;99886.31;5073607;28;20040;-66
2023/07/05 06:33:33;;;;;;;8.10;5.72;;;;;;;45.90;10.09;99861.97;5072000;28;20121;-65
2023/07/05 06:36:00;;;;;;;14.23;6.00;;;;;;;46.22;9.72;99895.16;5072280;28;20479;-66
2023/07/05 06:38:27;;;;;;;10.13;5.70;;;;;;;46.31;9.71;99892.97;5073679;28;20032;-66
2023/07/05 06:40:53;;;;;;;10.32;6.18;;;;;;;46.79;9.28;99890.06;5072281;28;20029;-66
2023/07/05 06:43:22;;;;;;;11.90;5.88;;;;;;;47.62;9.32;99885.34;5072498;28;20043;-65
2023/07/05 06:45:49;;;;;;;8.18;5.47;;;;;;;48.50;8.08;99887.75;5073122;28;20124;-65
2023/07/05 06:48:15;;;;;;;12.45;5.90;;;;;;;48.76;8.16;99886.91;5071074;28;20099;-64
2023/07/05 06:50:40;;;;;;;10.02;5.57;;;;;;;49.06;8.32;99883.28;5072027;28;20051;-64
2023/07/05 06:53:06;;;;;;;11.20;6.70;;;;;;;49.46;7.81;99880.97;5072587;28;20363;-63
2023/07/05 06:55:31;;;;;;;12.27;6.30;;;;;;;49.66;7.75;99855.16;5072300;28;20438;-63
2023/07/05 06:57:57;;;;;;;16.70;6.72;;;;;;;49.97;8.03;99875.81;5071486;28;20036;-63
2023/07/05 07:00:22;;;;;;;9.15;6.57;;;;;;;49.96;7.87;99869.28;5064850;28;20456;-69
2023/07/05 07:02:48;;;;;;;14.20;6.00;;;;;;;49.27;8.40;99874.25;5062895;28;20028;-64
2023/07/05 07:05:15;;;;;;;9.55;6.53;;;;;;;47.90;9.17;99878.63;5062014;28;20055;-65
2023/07/05 07:07:41;;;;;;;8.73;5.93;;;;;;;46.12;10.28;99857.72;5078896;28;20052;-65
2023/07/05 07:10:07;;;;;;;8.73;6.05;;;;;;;44.54;11.69;99871.69;5065903;28;20048;-64
2023/07/05 07:12:34;;;;;;;13.43;5.95;;;;;;;42.99;12.75;99868.63;5052198;28;20028;-65
2023/07/05 07:15:00;;;;;;;11.30;6.30;;;;;;;41.74;13.65;99872.28;5059090;28;20025;-66
2023/07/05 07:17:25;;;;;;;11.23;6.15;;;;;;;40.59;15.04;99873.31;5072123;28;20032;-64
2023/07/05 07:19:51;;;;;;;8.35;6.38;;;;;;;39.58;15.51;99878.22;5074760;28;20032;-65
2023/07/05 07:22:17;;;;;;;10.15;6.38;;;;;;;38.44;16.57;99882.66;5076310;28;20016;-62
2023/07/05 07:24:43;;;;;;;9.77;6.07;;;;;;;37.29;17.68;99877.34;5075159;28;20033;-63
2023/07/05 07:27:09;;;;;;;10.07;6.45;;;;;;;36.18;18.83;99856.66;5059511;28;20052;-60
2023/07/05 07:29:35;;;;;;;9.02;6.57;;;;;;;35.83;19.09;99872.56;5095461;28;20092;-62
2023/07/05 07:32:02;;;;;;;8.05;6.22;;;;;;;35.71;19.47;99875.72;5082505;28;20140;-62
2023/07/05 07:34:28;;;;;;;12.85;6.68;;;;;;;35.43;19.87;99874.53;5075745;28;20101;-63
2023/07/05 07:36:54;;;;;;;10.23;7.00;;;;;;;35.16;20.21;99834.09;5066662;28;20025;-61
2023/07/05 07:39:19;;;;;;;11.30;6.35;;;;;;;35.36;20.29;99860.97;5080691;28;20081;-63
2023/07/05 07:41:44;;;;;;;12.70;7.22;;;;;;;35.14;20.21;99855.81;5094697;28;20418;-62
2023/07/05 07:44:11;;;;;;;9.63;7.50;;;;;;;34.69;20.79;99867.69;5074176;28;20119;-62
2023/07/05 07:46:38;;;;;;;9.77;6.50;;;;;;;34.29;21.17;99886.16;5069732;28;20028;-62
2023/07/05 07:49:06;;;;;;;9.63;7.20;;;;;;;33.69;22.33;99882.03;5076704;28;20199;-65
2023/07/05 07:51:33;;;;;;;12.88;6.53;;;;;;;33.30;22.74;99886.13;5095789;28;20371;-61
2023/07/05 07:53:59;;;;;;;11.15;6.78;;;;;;;33.32;22.90;99874.72;5094990;28;20032;-61
2023/07/05 07:56:26;;;;;;;9.27;6.78;;;;;;;33.76;22.38;99873.38;5094616;28;20039;-64
2023/07/05 07:58:55;;;;;;;11.25;7.15;;;;;;;34.27;22.15;99866.16;5094998;28;20044;-64
2023/07/05 08:01:29;;;;;;;9.85;6.90;;;;;;;34.86;21.27;99869.28;5090683;28;20032;-63
2023/07/05 08:03:57;;;;;;;9.82;7.07;;;;;;;35.13;20.95;99868.91;5093765;28;20032;-65
2023/07/05 08:06:37;;;;;;;10.82;7.70;;;;;;;35.76;20.56;99866.50;5085020;28;20102;-65
2023/07/05 08:09:06;;;;;;;11.65;7.38;;;;;;;36.02;20.29;99874.66;5073645;28;20036;-64
2023/07/05 08:11:32;;;;;;;10.25;6.45;;;;;;;35.86;20.49;99871.97;5073585;28;20345;-63
2023/07/05 08:13:58;;;;;;;8.00;6.80;;;;;;;35.63;20.55;99863.25;5074640;28;20035;-65
2023/07/05 08:16:24;;;;;;;11.95;7.00;;;;;;;35.49;21.09;99867.81;5072878;28;20036;-61
2023/07/05 08:18:51;;;;;;;14.48;6.70;;;;;;;35.20;21.42;99866.63;5074880;28;20036;-64
2023/07/05 08:21:17;;;;;;;11.15;7.28;;;;;;;35.11;21.67;99875.84;5072119;28;20040;-64
2023/07/05 08:23:43;;;;;;;16.58;8.18;;;;;;;34.88;21.70;99883.75;5073261;28;20028;-62
2023/07/05 08:26:10;;;;;;;8.77;7.00;;;;;;;34.46;22.44;99881.09;5074383;28;20032;-61
2023/07/05 08:28:36;;;;;;;13.60;7.57;;;;;;;34.16;23.07;99888.38;5073138;28;20028;-62
2023/07/05 08:31:03;;;;;;;11.73;7.47;;;;;;;33.83;23.38;99903.66;5073973;28;20031;-64
2023/07/05 08:33:31;;;;;;;17.17;8.00;;;;;;;33.42;24.05;99896.09;5073708;28;20058;-61
2023/07/05 08:36:14;;;;;;;9.82;7.07;;;;;;;33.37;24.07;99908.03;5073578;28;20084;-60
2023/07/05 08:38:47;;;;;;;14.80;7.68;;;;;;;33.17;24.96;99894.94;5074144;28;20042;-63
2023/07/05 08:41:41;;;;;;;11.40;7.65;;;;;;;33.57;24.16;99903.66;5074573;28;20024;-61
2023/07/05 08:44:30;;;;;;;16.67;8.43;;;;;;;33.86;23.86;99900.31;5073776;28;20016;-67
2023/07/05 08:47:08;;;;;;;12.38;7.43;;;;;;;34.06;23.91;99893.97;5071148;28;20024;-63
2023/07/05 08:49:48;;;;;;;12.20;8.35;;;;;;;34.11;23.95;99909.78;5057052;28;20372;-63
2023/07/05 08:52:45;;;;;;;16.45;8.27;;;;;;;34.52;23.75;99893.06;5053954;28;20191;-63
2023/07/05 08:55:17;;;;;;;11.27;8.32;;;;;;;34.40;24.01;99900.84;5058817;28;20052;-64
2023/07/05 08:57:51;;;;;;;11.85;7.55;;;;;;;34.41;24.15;99897.78;5070981;28;20051;-63
2023/07/05 09:00:23;;;;;;;11.73;7.95;;;;;;;34.35;24.27;99896.13;5073665;28;20403;-65
2023/07/05 09:02:49;;;;;;;13.02;8.27;;;;;;;34.39;24.19;99888.91;5073481;28;20482;-65
2023/07/05 09:05:21;;;;;;;17.10;8.55;;;;;;;34.57;24.17;99892.22;5083958;28;20052;-65
2023/07/05 09:08:20;;;;;;;17.38;8.05;;;;;;;34.94;23.93;99888.16;5073816;28;20033;-64
2023/07/05 09:10:54;;;;;;;12.85;7.90;;;;;;;34.92;23.92;99888.44;5073492;28;20078;-64
2023/07/05 09:13:37;;;;;;;14.40;8.45;;;;;;;34.88;24.18;99892.09;5075069;28;20051;-63
2023/07/05 09:16:27;;;;;;;13.90;8.10;;;;;;;34.49;24.51;99885.28;5083104;28;20036;-64
2023/07/05 09:19:05;;;;;;;13.52;7.80;;;;;;;33.91;25.21;99903.94;5069174;28;20028;-64
2023/07/05 09:21:36;;;;;;;19.48;8.18;;;;;;;33.44;25.73;99893.94;5093369;28;20445;-65
2023/07/05 09:24:23;;;;;;;13.18;8.10;;;;;;;33.33;26.17;99898.59;5093219;28;20111;-64
2023/07/05 09:27:16;;;;;;;12.48;7.93;;;;;;;33.13;26.20;99896.63;5066627;28;20037;-67
2023/07/05 09:30:04;;;;;;;11.88;7.72;;;;;;;32.73;27.62;99896.16;5069338;28;20062;-67
2023/07/05 09:32:39;;;;;;;13.35;8.00;;;;;;;32.35;27.13;99877.69;5072422;28;20036;-66
2023/07/05 09:35:15;;;;;;;13.80;8.25;;;;;;;32.26;27.48;99886.72;5068211;28;20040;-67
2023/07/05 09:37:55;;;;;;;13.43;8.13;;;;;;;31.99;28.03;99893.19;5052935;28;20103;-68
2023/07/05 09:40:28;;;;;;;11.00;7.97;;;;;;;31.79;28.33;99883.63;5086742;28;20044;-68
2023/07/05 09:43:06;;;;;;;14.43;8.15;;;;;;;31.72;28.62;99883.84;5073947;28;20029;-70
2023/07/05 09:45:32;;;;;;;13.60;7.88;;;;;;;31.67;29.22;99886.53;5072022;28;20040;-66
2023/07/05 09:48:00;;;;;;;12.00;8.60;;;;;;;31.68;28.64;99890.97;5071692;28;20020;-68
2023/07/05 09:50:25;;;;;;;10.85;8.13;;;;;;;31.70;29.09;99880.47;5068573;28;20021;-65
2023/07/05 09:52:58;;;;;;;15.65;8.32;;;;;;;31.82;28.76;99880.31;5070541;28;20035;-65
2023/07/05 09:55:26;;;;;;;11.43;7.82;;;;;;;31.95;28.98;99881.81;5072316;28;20036;-65
2023/07/05 09:57:52;;;;;;;12.27;8.15;;;;;;;32.03;29.08;99886.03;5073836;28;20070;-66
2023/07/05 10:00:32;;;;;;;15.10;8.27;;;;;;;32.11;28.95;99885.53;5073751;28;20044;-66
2023/07/05 10:03:09;;;;;;;13.00;8.85;;;;;;;31.83;29.14;99895.00;5072009;28;20036;-72
2023/07/05 10:05:34;;;;;;;18.10;8.43;;;;;;;31.34;29.58;99878.22;5072728;28;20049;-67
2023/07/05 10:08:04;;;;;;;12.40;7.88;;;;;;;31.09;30.03;99892.59;5072650;28;20456;-63
2023/07/05 10:10:36;;;;;;;12.93;8.73;;;;;;;30.99;30.91;99893.28;5071815;28;20034;-65
2023/07/05 10:13:20;;;;;;;11.65;9.00;;;;;;;30.98;31.22;99890.78;5070379;28;20031;-64
2023/07/05 10:15:49;;;;;;;14.93;9.10;;;;;;;30.84;31.44;99895.88;5083707;28;20051;-66
2023/07/05 10:18:32;;;;;;;17.25;8.95;;;;;;;30.80;31.54;99898.31;5069755;28;20060;-67
2023/07/05 10:21:05;;;;;;;12.00;8.65;;;;;;;30.57;32.22;99899.34;5072550;28;20041;-68
2023/07/05 10:23:32;;;;;;;13.57;9.15;;;;;;;30.13;32.97;99906.47;5088735;28;20028;-65
2023/07/05 10:26:04;;;;;;;17.48;8.75;;;;;;;29.76;33.15;99887.63;5084677;28;20115;-67
2023/07/05 10:28:33;;;;;;;12.68;9.00;;;;;;;29.65;34.05;99917.78;5073479;28;20036;-69
2023/07/05 10:31:00;;;;;;;12.65;9.15;;;;;;;29.41;34.27;99911.56;5072245;28;20058;-64
2023/07/05 10:33:29;;;;;;;15.63;9.18;;;;;;;29.28;34.66;99923.72;5063519;28;20033;-66
2023/07/05 10:36:02;;;;;;;13.63;9.07;;;;;;;29.21;34.69;99929.38;5059386;28;20036;-67
2023/07/05 10:38:44;;;;;;;11.10;9.07;;;;;;;29.06;35.07;99920.81;5071855;28;20025;-67
2023/07/05 10:41:16;;;;;;;14.32;9.13;;;;;;;28.86;35.30;99893.66;5071977;28;20032;-65
2023/07/05 10:43:43;;;;;;;17.58;9.80;;;;;;;28.56;36.08;99908.41;5072263;28;20090;-63
2023/07/05 10:46:10;;;;;;;14.25;9.93;;;;;;;28.29;36.78;99915.25;5076213;28;20090;-67
2023/07/05 10:48:43;;;;;;;19.35;10.05;;;;;;;28.14;36.51;99907.44;5070740;28;20133;-64
2023/07/05 10:51:21;;;;;;;15.27;10.30;;;;;;;27.90;37.05;99890.91;5070496;28;20391;-65
2023/07/05 10:53:55;;;;;;;12.82;9.18;;;;;;;27.91;36.61;99925.59;5079940;28;20784;-67
2023/07/05 10:56:26;;;;;;;14.32;9.88;;;;;;;27.75;36.82;99921.63;5086051;28;20178;-66
2023/07/05 10:59:38;;;;;;;18.42;9.52;;;;;;;27.86;36.31;99935.66;5070611;28;20036;-66
2023/07/05 11:02:13;;;;;;;17.63;10.32;;;;;;;27.79;36.68;99933.81;5077532;28;20048;-64
2023/07/05 11:04:43;;;;;;;15.68;10.40;;;;;;;27.71;37.20;99928.69;5075957;28;20037;-65
2023/07/05 11:07:12;;;;;;;16.00;10.30;;;;;;;27.76;36.78;99930.72;5070811;28;20583;-66
2023/07/05 11:09:38;;;;;;;19.88;10.43;;;;;;;27.72;36.75;99924.84;5072133;28;20036;-64
2023/07/05 11:12:28;;;;;;;15.73;10.18;;;;;;;27.95;36.41;99934.22;5087644;28;20081;-64
2023/07/05 11:14:56;;;;;;;15.75;9.80;;;;;;;27.89;36.96;99933.25;5091676;28;20057;-64
2023/07/05 11:17:48;;;;;;;20.88;10.43;;;;;;;28.04;36.67;99923.72;5091025;28;20032;-64
2023/07/05 11:20:35;;;;;;;13.43;9.70;;;;;;;28.54;35.78;99932.63;5067980;28;20041;-65
2023/07/05 11:23:00;;;;;;;12.48;9.23;;;;;;;28.64;35.39;99928.16;5072041;28;20460;-64
2023/07/05 11:25:51;;;;;;;18.75;10.55;;;;;;;28.99;35.13;99931.13;5071500;28;20075;-66
2023/07/05 11:28:41;;;;;;;16.52;9.93;;;;;;;29.17;34.81;99943.88;5067204;28;20135;-67
2023/07/05 11:31:08;;;;;;;17.15;10.52;;;;;;;29.08;35.53;99941.53;5067422;28;20504;-66
2023/07/05 11:33:34;;;;;;;15.40;10.10;;;;;;;29.12;35.48;99930.84;5055750;28;20171;-66
2023/07/05 11:36:08;;;;;;;15.20;10.13;;;;;;;29.30;34.77;99935.34;5070910;28;20036;-69
2023/07/05 11:38:36;;;;;;;17.80;9.90;;;;;;;29.58;34.30;99930.09;5071960;28;20028;-66